sensor_id;sensor_type;location;lat;lon;timestamp;P1;durP1;ratioP1;P2;durP2;ratioP2
79487;SDS011;68949;53.176;18.088;2024-01-15T00:01:50;8.80;;;2.90;;
79487;SDS011;68949;53.176;18.088;2024-01-15T00:04:17;6.80;;;3.00;;
79487;SDS011;68949;53.176;18.088;2024-01-15T00:06:44;8.10;;;3.20;;
79487;SDS011;68949;53.176;18.088;2024-01-15T00:09:10;8.10;;;3.90;;
79487;SDS011;68949;53.176;18.088;2024-01-15T00:11:39;8.70;;;2.70;;
79487;SDS011;68949;53.176;18.088;2024-01-15T00:14:06;7.00;;;2.90;;
79487;SDS011;68949;53.176;18.088;2024-01-15T00:16:33;11.90;;;4.20;;
79487;SDS011;68949;53.176;18.088;2024-01-15T00:19:02;8.60;;;3.50;;
79487;SDS011;68949;53.176;18.088;2024-01-15T00:21:31;9.10;;;3.60;;
79487;SDS011;68949;53.176;18.088;2024-01-15T00:23:58;7.80;;;3.40;;
79487;SDS011;68949;53.176;18.088;2024-01-15T00:26:25;7.10;;;2.70;;
79487;SDS011;68949;53.176;18.088;2024-01-15T00:28:52;12.60;;;4.20;;
79487;SDS011;68949;53.176;18.088;2024-01-15T00:31:18;10.50;;;3.40;;
79487;SDS011;68949;53.176;18.088;2024-01-15T00:33:45;10.10;;;3.50;;
79487;SDS011;68949;53.176;18.088;2024-01-15T00:36:12;7.40;;;2.80;;
79487;SDS011;68949;53.176;18.088;2024-01-15T00:38:40;9.90;;;4.60;;
79487;SDS011;68949;53.176;18.088;2024-01-15T00:41:07;9.30;;;3.30;;
79487;SDS011;68949;53.176;18.088;2024-01-15T00:43:34;9.80;;;3.50;;
79487;SDS011;68949;53.176;18.088;2024-01-15T00:46:04;9.30;;;3.60;;
79487;SDS011;68949;53.176;18.088;2024-01-15T00:48:32;10.40;;;4.40;;
79487;SDS011;68949;53.176;18.088;2024-01-15T00:50:59;10.70;;;4.50;;
79487;SDS011;68949;53.176;18.088;2024-01-15T00:53:25;9.40;;;3.80;;
79487;SDS011;68949;53.176;18.088;2024-01-15T00:55:52;7.90;;;3.70;;
79487;SDS011;68949;53.176;18.088;2024-01-15T00:58:21;10.90;;;4.40;;
79487;SDS011;68949;53.176;18.088;2024-01-15T01:00:49;10.80;;;4.00;;
79487;SDS011;68949;53.176;18.088;2024-01-15T01:03:16;8.00;;;3.30;;
79487;SDS011;68949;53.176;18.088;2024-01-15T01:05:43;10.00;;;4.90;;
79487;SDS011;68949;53.176;18.088;2024-01-15T01:08:10;9.00;;;3.70;;
79487;SDS011;68949;53.176;18.088;2024-01-15T01:10:38;8.90;;;4.00;;
79487;SDS011;68949;53.176;18.088;2024-01-15T01:13:05;7.30;;;3.30;;
79487;SDS011;68949;53.176;18.088;2024-01-15T01:15:31;7.30;;;3.10;;
79487;SDS011;68949;53.176;18.088;2024-01-15T01:17:58;9.40;;;4.20;;
79487;SDS011;68949;53.176;18.088;2024-01-15T01:20:24;11.80;;;5.20;;
79487;SDS011;68949;53.176;18.088;2024-01-15T01:22:51;12.00;;;5.10;;
79487;SDS011;68949;53.176;18.088;2024-01-15T01:25:18;10.60;;;4.60;;
79487;SDS011;68949;53.176;18.088;2024-01-15T01:27:48;8.40;;;3.40;;
79487;SDS011;68949;53.176;18.088;2024-01-15T01:30:14;8.40;;;3.60;;
79487;SDS011;68949;53.176;18.088;2024-01-15T01:32:42;9.00;;;3.70;;
79487;SDS011;68949;53.176;18.088;2024-01-15T01:35:08;7.00;;;3.00;;
79487;SDS011;68949;53.176;18.088;2024-01-15T01:37:35;9.00;;;3.60;;
79487;SDS011;68949;53.176;18.088;2024-01-15T01:40:02;9.00;;;3.70;;
79487;SDS011;68949;53.176;18.088;2024-01-15T01:42:29;10.30;;;4.40;;
79487;SDS011;68949;53.176;18.088;2024-01-15T01:44:56;9.50;;;3.80;;
79487;SDS011;68949;53.176;18.088;2024-01-15T01:47:23;11.50;;;4.00;;
79487;SDS011;68949;53.176;18.088;2024-01-15T01:49:53;6.60;;;2.50;;
79487;SDS011;68949;53.176;18.088;2024-01-15T01:52:21;8.80;;;3.20;;
79487;SDS011;68949;53.176;18.088;2024-01-15T01:54:48;7.00;;;2.60;;
79487;SDS011;68949;53.176;18.088;2024-01-15T01:57:16;9.20;;;3.20;;
79487;SDS011;68949;53.176;18.088;2024-01-15T01:59:45;9.50;;;3.10;;
79487;SDS011;68949;53.176;18.088;2024-01-15T02:02:13;5.80;;;2.50;;
79487;SDS011;68949;53.176;18.088;2024-01-15T02:04:40;7.90;;;3.50;;
79487;SDS011;68949;53.176;18.088;2024-01-15T02:07:07;9.80;;;3.60;;
79487;SDS011;68949;53.176;18.088;2024-01-15T02:09:33;7.80;;;3.40;;
79487;SDS011;68949;53.176;18.088;2024-01-15T02:12:00;6.70;;;2.70;;
79487;SDS011;68949;53.176;18.088;2024-01-15T02:14:27;7.20;;;3.10;;
79487;SDS011;68949;53.176;18.088;2024-01-15T02:16:54;6.50;;;2.70;;
79487;SDS011;68949;53.176;18.088;2024-01-15T02:19:20;9.30;;;3.60;;
79487;SDS011;68949;53.176;18.088;2024-01-15T02:21:47;7.50;;;2.70;;
79487;SDS011;68949;53.176;18.088;2024-01-15T02:24:14;5.90;;;2.10;;
79487;SDS011;68949;53.176;18.088;2024-01-15T02:26:41;7.10;;;2.90;;
79487;SDS011;68949;53.176;18.088;2024-01-15T02:29:07;6.50;;;2.30;;
79487;SDS011;68949;53.176;18.088;2024-01-15T02:31:36;8.00;;;3.50;;
79487;SDS011;68949;53.176;18.088;2024-01-15T02:34:03;4.60;;;1.90;;
79487;SDS011;68949;53.176;18.088;2024-01-15T02:36:29;7.40;;;2.20;;
79487;SDS011;68949;53.176;18.088;2024-01-15T02:38:56;6.40;;;2.30;;
79487;SDS011;68949;53.176;18.088;2024-01-15T02:41:23;7.20;;;2.50;;
79487;SDS011;68949;53.176;18.088;2024-01-15T02:43:50;5.40;;;2.00;;
79487;SDS011;68949;53.176;18.088;2024-01-15T02:46:17;7.20;;;2.70;;
79487;SDS011;68949;53.176;18.088;2024-01-15T02:48:44;7.10;;;2.40;;
79487;SDS011;68949;53.176;18.088;2024-01-15T02:51:11;7.70;;;3.10;;
79487;SDS011;68949;53.176;18.088;2024-01-15T02:53:39;6.10;;;2.20;;
79487;SDS011;68949;53.176;18.088;2024-01-15T02:56:07;8.50;;;3.50;;
79487;SDS011;68949;53.176;18.088;2024-01-15T02:58:35;6.20;;;2.40;;
79487;SDS011;68949;53.176;18.088;2024-01-15T03:01:02;7.40;;;2.20;;
79487;SDS011;68949;53.176;18.088;2024-01-15T03:03:29;7.70;;;3.10;;
79487;SDS011;68949;53.176;18.088;2024-01-15T03:05:56;6.80;;;2.60;;
79487;SDS011;68949;53.176;18.088;2024-01-15T03:08:22;6.10;;;2.70;;
79487;SDS011;68949;53.176;18.088;2024-01-15T03:10:52;4.50;;;1.60;;
79487;SDS011;68949;53.176;18.088;2024-01-15T03:13:19;7.10;;;2.50;;
79487;SDS011;68949;53.176;18.088;2024-01-15T03:15:46;7.10;;;1.80;;
79487;SDS011;68949;53.176;18.088;2024-01-15T03:18:12;7.90;;;2.90;;
79487;SDS011;68949;53.176;18.088;2024-01-15T03:20:41;6.20;;;2.80;;
79487;SDS011;68949;53.176;18.088;2024-01-15T03:23:09;8.10;;;3.50;;
79487;SDS011;68949;53.176;18.088;2024-01-15T03:25:37;6.80;;;2.00;;
79487;SDS011;68949;53.176;18.088;2024-01-15T03:28:06;7.00;;;2.60;;
79487;SDS011;68949;53.176;18.088;2024-01-15T03:30:34;6.40;;;2.70;;
79487;SDS011;68949;53.176;18.088;2024-01-15T03:33:01;8.60;;;4.00;;
79487;SDS011;68949;53.176;18.088;2024-01-15T03:35:29;9.70;;;3.90;;
79487;SDS011;68949;53.176;18.088;2024-01-15T03:37:59;5.50;;;2.30;;
79487;SDS011;68949;53.176;18.088;2024-01-15T03:40:26;7.30;;;3.10;;
79487;SDS011;68949;53.176;18.088;2024-01-15T03:42:55;10.20;;;2.40;;
79487;SDS011;68949;53.176;18.088;2024-01-15T03:45:23;7.80;;;3.10;;
79487;SDS011;68949;53.176;18.088;2024-01-15T03:47:51;8.90;;;2.80;;
79487;SDS011;68949;53.176;18.088;2024-01-15T03:50:18;8.20;;;3.10;;
79487;SDS011;68949;53.176;18.088;2024-01-15T03:52:45;11.60;;;5.40;;
79487;SDS011;68949;53.176;18.088;2024-01-15T03:55:12;8.70;;;2.80;;
79487;SDS011;68949;53.176;18.088;2024-01-15T03:57:42;11.90;;;5.10;;
79487;SDS011;68949;53.176;18.088;2024-01-15T04:00:12;9.10;;;3.70;;
79487;SDS011;68949;53.176;18.088;2024-01-15T04:02:41;8.50;;;3.80;;
79487;SDS011;68949;53.176;18.088;2024-01-15T04:05:08;9.70;;;4.30;;
79487;SDS011;68949;53.176;18.088;2024-01-15T04:07:37;9.10;;;3.80;;
79487;SDS011;68949;53.176;18.088;2024-01-15T04:10:05;11.00;;;4.60;;
79487;SDS011;68949;53.176;18.088;2024-01-15T04:12:32;10.50;;;4.60;;
79487;SDS011;68949;53.176;18.088;2024-01-15T04:15:00;9.70;;;3.50;;
79487;SDS011;68949;53.176;18.088;2024-01-15T04:17:27;9.90;;;3.70;;
79487;SDS011;68949;53.176;18.088;2024-01-15T04:19:56;11.20;;;4.80;;
79487;SDS011;68949;53.176;18.088;2024-01-15T04:22:25;7.60;;;3.40;;
79487;SDS011;68949;53.176;18.088;2024-01-15T04:24:58;9.20;;;2.90;;
79487;SDS011;68949;53.176;18.088;2024-01-15T04:27:27;9.80;;;3.50;;
79487;SDS011;68949;53.176;18.088;2024-01-15T04:29:55;11.20;;;3.40;;
79487;SDS011;68949;53.176;18.088;2024-01-15T04:32:21;8.20;;;3.30;;
79487;SDS011;68949;53.176;18.088;2024-01-15T04:34:49;8.10;;;2.90;;
79487;SDS011;68949;53.176;18.088;2024-01-15T04:37:16;8.90;;;3.20;;
79487;SDS011;68949;53.176;18.088;2024-01-15T04:39:43;8.20;;;2.30;;
79487;SDS011;68949;53.176;18.088;2024-01-15T04:42:14;7.20;;;2.40;;
79487;SDS011;68949;53.176;18.088;2024-01-15T04:44:40;7.20;;;2.70;;
79487;SDS011;68949;53.176;18.088;2024-01-15T04:47:07;6.10;;;1.70;;
79487;SDS011;68949;53.176;18.088;2024-01-15T04:49:34;5.00;;;1.80;;
79487;SDS011;68949;53.176;18.088;2024-01-15T04:52:00;5.60;;;1.70;;
79487;SDS011;68949;53.176;18.088;2024-01-15T04:54:28;5.90;;;1.40;;
79487;SDS011;68949;53.176;18.088;2024-01-15T04:56:55;5.70;;;1.70;;
79487;SDS011;68949;53.176;18.088;2024-01-15T04:59:24;4.30;;;1.30;;
79487;SDS011;68949;53.176;18.088;2024-01-15T05:01:56;4.00;;;1.00;;
79487;SDS011;68949;53.176;18.088;2024-01-15T05:04:24;4.50;;;1.50;;
79487;SDS011;68949;53.176;18.088;2024-01-15T05:06:51;4.20;;;1.20;;
79487;SDS011;68949;53.176;18.088;2024-01-15T05:09:18;3.60;;;0.80;;
79487;SDS011;68949;53.176;18.088;2024-01-15T05:11:45;5.10;;;1.70;;
79487;SDS011;68949;53.176;18.088;2024-01-15T05:14:11;5.90;;;1.60;;
79487;SDS011;68949;53.176;18.088;2024-01-15T05:16:39;5.70;;;1.20;;
79487;SDS011;68949;53.176;18.088;2024-01-15T05:19:07;5.00;;;1.20;;
79487;SDS011;68949;53.176;18.088;2024-01-15T05:21:34;4.80;;;0.90;;
79487;SDS011;68949;53.176;18.088;2024-01-15T05:24:01;2.90;;;0.60;;
79487;SDS011;68949;53.176;18.088;2024-01-15T05:26:28;5.10;;;1.00;;
79487;SDS011;68949;53.176;18.088;2024-01-15T05:28:55;4.50;;;1.00;;
79487;SDS011;68949;53.176;18.088;2024-01-15T05:31:22;5.90;;;1.40;;
79487;SDS011;68949;53.176;18.088;2024-01-15T05:34:14;6.50;;;1.20;;
79487;SDS011;68949;53.176;18.088;2024-01-15T05:36:43;4.10;;;0.90;;
79487;SDS011;68949;53.176;18.088;2024-01-15T05:39:10;4.10;;;0.80;;
79487;SDS011;68949;53.176;18.088;2024-01-15T05:41:37;8.60;;;1.70;;
79487;SDS011;68949;53.176;18.088;2024-01-15T05:44:04;5.70;;;1.10;;
79487;SDS011;68949;53.176;18.088;2024-01-15T05:46:31;4.10;;;1.00;;
79487;SDS011;68949;53.176;18.088;2024-01-15T05:48:57;5.10;;;0.80;;
79487;SDS011;68949;53.176;18.088;2024-01-15T05:51:24;3.70;;;0.50;;
79487;SDS011;68949;53.176;18.088;2024-01-15T05:53:51;8.80;;;0.90;;
79487;SDS011;68949;53.176;18.088;2024-01-15T05:56:17;3.70;;;0.70;;
79487;SDS011;68949;53.176;18.088;2024-01-15T05:58:44;3.70;;;0.60;;
79487;SDS011;68949;53.176;18.088;2024-01-15T06:01:11;5.20;;;0.80;;
79487;SDS011;68949;53.176;18.088;2024-01-15T06:03:43;4.20;;;0.70;;
79487;SDS011;68949;53.176;18.088;2024-01-15T06:06:10;6.40;;;1.10;;
79487;SDS011;68949;53.176;18.088;2024-01-15T06:08:37;3.10;;;0.60;;
79487;SDS011;68949;53.176;18.088;2024-01-15T06:11:04;2.50;;;0.60;;
79487;SDS011;68949;53.176;18.088;2024-01-15T06:13:33;6.20;;;0.90;;
79487;SDS011;68949;53.176;18.088;2024-01-15T06:15:59;8.60;;;1.00;;
79487;SDS011;68949;53.176;18.088;2024-01-15T06:18:26;3.30;;;0.50;;
79487;SDS011;68949;53.176;18.088;2024-01-15T06:20:53;6.30;;;0.70;;
79487;SDS011;68949;53.176;18.088;2024-01-15T06:23:19;7.10;;;0.90;;
79487;SDS011;68949;53.176;18.088;2024-01-15T06:25:46;3.60;;;0.60;;
79487;SDS011;68949;53.176;18.088;2024-01-15T06:28:13;5.50;;;1.00;;
79487;SDS011;68949;53.176;18.088;2024-01-15T06:30:39;6.80;;;1.20;;
79487;SDS011;68949;53.176;18.088;2024-01-15T06:33:06;3.90;;;0.60;;
79487;SDS011;68949;53.176;18.088;2024-01-15T06:35:33;2.90;;;0.90;;
79487;SDS011;68949;53.176;18.088;2024-01-15T06:38:00;3.40;;;0.90;;
79487;SDS011;68949;53.176;18.088;2024-01-15T06:40:27;6.70;;;1.40;;
79487;SDS011;68949;53.176;18.088;2024-01-15T06:42:54;3.60;;;0.70;;
79487;SDS011;68949;53.176;18.088;2024-01-15T06:45:20;6.20;;;1.20;;
79487;SDS011;68949;53.176;18.088;2024-01-15T06:47:47;3.00;;;0.90;;
79487;SDS011;68949;53.176;18.088;2024-01-15T06:50:13;4.60;;;1.50;;
79487;SDS011;68949;53.176;18.088;2024-01-15T06:52:40;6.30;;;0.90;;
79487;SDS011;68949;53.176;18.088;2024-01-15T06:55:07;3.60;;;0.80;;
79487;SDS011;68949;53.176;18.088;2024-01-15T06:57:34;6.20;;;1.40;;
79487;SDS011;68949;53.176;18.088;2024-01-15T07:00:01;5.00;;;1.40;;
79487;SDS011;68949;53.176;18.088;2024-01-15T07:02:34;6.40;;;2.00;;
79487;SDS011;68949;53.176;18.088;2024-01-15T07:05:00;7.70;;;1.50;;
79487;SDS011;68949;53.176;18.088;2024-01-15T07:07:27;4.70;;;1.20;;
79487;SDS011;68949;53.176;18.088;2024-01-15T07:09:58;8.30;;;2.50;;
79487;SDS011;68949;53.176;18.088;2024-01-15T07:12:25;5.90;;;1.60;;
79487;SDS011;68949;53.176;18.088;2024-01-15T07:14:52;7.70;;;1.80;;
79487;SDS011;68949;53.176;18.088;2024-01-15T07:17:18;4.60;;;1.10;;
79487;SDS011;68949;53.176;18.088;2024-01-15T07:19:45;6.30;;;2.00;;
79487;SDS011;68949;53.176;18.088;2024-01-15T07:22:14;7.50;;;1.60;;
79487;SDS011;68949;53.176;18.088;2024-01-15T07:24:41;6.60;;;1.60;;
79487;SDS011;68949;53.176;18.088;2024-01-15T07:27:08;6.20;;;2.10;;
79487;SDS011;68949;53.176;18.088;2024-01-15T07:29:35;10.10;;;1.30;;
79487;SDS011;68949;53.176;18.088;2024-01-15T07:32:05;5.00;;;1.60;;
79487;SDS011;68949;53.176;18.088;2024-01-15T07:34:34;6.90;;;1.80;;
79487;SDS011;68949;53.176;18.088;2024-01-15T07:37:00;47.80;;;3.20;;
79487;SDS011;68949;53.176;18.088;2024-01-15T07:39:27;6.80;;;2.20;;
79487;SDS011;68949;53.176;18.088;2024-01-15T07:41:55;6.80;;;1.50;;
79487;SDS011;68949;53.176;18.088;2024-01-15T07:44:22;7.00;;;1.80;;
79487;SDS011;68949;53.176;18.088;2024-01-15T07:46:49;6.30;;;2.20;;
79487;SDS011;68949;53.176;18.088;2024-01-15T07:49:16;7.40;;;1.80;;
79487;SDS011;68949;53.176;18.088;2024-01-15T07:51:43;6.80;;;1.70;;
79487;SDS011;68949;53.176;18.088;2024-01-15T07:54:10;6.20;;;1.90;;
79487;SDS011;68949;53.176;18.088;2024-01-15T07:57:01;5.90;;;1.70;;
79487;SDS011;68949;53.176;18.088;2024-01-15T07:59:30;4.70;;;2.20;;
79487;SDS011;68949;53.176;18.088;2024-01-15T08:01:58;6.30;;;2.10;;
79487;SDS011;68949;53.176;18.088;2024-01-15T08:04:26;5.20;;;2.00;;
79487;SDS011;68949;53.176;18.088;2024-01-15T08:06:52;8.30;;;2.00;;
79487;SDS011;68949;53.176;18.088;2024-01-15T08:09:19;7.70;;;2.10;;
79487;SDS011;68949;53.176;18.088;2024-01-15T08:11:46;8.50;;;2.10;;
79487;SDS011;68949;53.176;18.088;2024-01-15T08:14:13;7.40;;;2.30;;
79487;SDS011;68949;53.176;18.088;2024-01-15T08:16:39;8.10;;;1.90;;
79487;SDS011;68949;53.176;18.088;2024-01-15T08:19:07;9.20;;;1.80;;
79487;SDS011;68949;53.176;18.088;2024-01-15T08:21:33;5.50;;;1.30;;
79487;SDS011;68949;53.176;18.088;2024-01-15T08:24:02;6.50;;;1.90;;
79487;SDS011;68949;53.176;18.088;2024-01-15T08:26:29;5.70;;;1.80;;
79487;SDS011;68949;53.176;18.088;2024-01-15T08:29:01;7.00;;;2.10;;
79487;SDS011;68949;53.176;18.088;2024-01-15T08:31:28;4.40;;;1.40;;
79487;SDS011;68949;53.176;18.088;2024-01-15T08:33:59;11.20;;;2.10;;
79487;SDS011;68949;53.176;18.088;2024-01-15T08:36:28;8.40;;;1.70;;
79487;SDS011;68949;53.176;18.088;2024-01-15T08:38:57;6.30;;;2.00;;
79487;SDS011;68949;53.176;18.088;2024-01-15T08:41:24;7.90;;;2.00;;
79487;SDS011;68949;53.176;18.088;2024-01-15T08:43:51;5.90;;;1.70;;
79487;SDS011;68949;53.176;18.088;2024-01-15T08:46:19;7.90;;;2.00;;
79487;SDS011;68949;53.176;18.088;2024-01-15T08:48:49;6.50;;;1.80;;
79487;SDS011;68949;53.176;18.088;2024-01-15T08:51:16;6.90;;;1.60;;
79487;SDS011;68949;53.176;18.088;2024-01-15T08:53:45;5.90;;;1.40;;
79487;SDS011;68949;53.176;18.088;2024-01-15T08:56:11;6.30;;;1.60;;
79487;SDS011;68949;53.176;18.088;2024-01-15T08:58:38;5.70;;;1.40;;
79487;SDS011;68949;53.176;18.088;2024-01-15T09:01:05;5.00;;;0.90;;
79487;SDS011;68949;53.176;18.088;2024-01-15T09:03:32;8.70;;;2.00;;
79487;SDS011;68949;53.176;18.088;2024-01-15T09:06:03;7.10;;;1.90;;
79487;SDS011;68949;53.176;18.088;2024-01-15T09:08:32;8.70;;;1.90;;
79487;SDS011;68949;53.176;18.088;2024-01-15T09:11:05;6.10;;;1.90;;
79487;SDS011;68949;53.176;18.088;2024-01-15T09:13:32;5.50;;;1.30;;
79487;SDS011;68949;53.176;18.088;2024-01-15T09:16:03;5.30;;;1.80;;
79487;SDS011;68949;53.176;18.088;2024-01-15T09:18:33;8.80;;;2.50;;
79487;SDS011;68949;53.176;18.088;2024-01-15T09:21:03;8.40;;;1.50;;
79487;SDS011;68949;53.176;18.088;2024-01-15T09:23:31;7.90;;;1.60;;
79487;SDS011;68949;53.176;18.088;2024-01-15T09:26:03;8.20;;;1.60;;
79487;SDS011;68949;53.176;18.088;2024-01-15T09:28:30;5.90;;;1.70;;
79487;SDS011;68949;53.176;18.088;2024-01-15T09:31:06;6.50;;;1.30;;
79487;SDS011;68949;53.176;18.088;2024-01-15T09:33:35;8.00;;;2.30;;
79487;SDS011;68949;53.176;18.088;2024-01-15T09:36:03;7.70;;;1.80;;
79487;SDS011;68949;53.176;18.088;2024-01-15T09:38:32;9.90;;;1.50;;
79487;SDS011;68949;53.176;18.088;2024-01-15T09:41:03;7.20;;;2.20;;
79487;SDS011;68949;53.176;18.088;2024-01-15T09:43:31;6.70;;;1.90;;
79487;SDS011;68949;53.176;18.088;2024-01-15T09:46:10;7.90;;;1.80;;
79487;SDS011;68949;53.176;18.088;2024-01-15T09:48:44;7.90;;;1.90;;
79487;SDS011;68949;53.176;18.088;2024-01-15T09:51:12;5.80;;;2.00;;
79487;SDS011;68949;53.176;18.088;2024-01-15T09:53:41;6.10;;;1.40;;
79487;SDS011;68949;53.176;18.088;2024-01-15T09:56:13;6.20;;;1.50;;
79487;SDS011;68949;53.176;18.088;2024-01-15T09:58:46;6.40;;;1.20;;
79487;SDS011;68949;53.176;18.088;2024-01-15T10:01:17;3.60;;;1.00;;
79487;SDS011;68949;53.176;18.088;2024-01-15T10:03:50;6.00;;;1.10;;
79487;SDS011;68949;53.176;18.088;2024-01-15T10:06:21;5.20;;;0.70;;
79487;SDS011;68949;53.176;18.088;2024-01-15T10:08:53;4.10;;;0.60;;
79487;SDS011;68949;53.176;18.088;2024-01-15T10:11:23;3.90;;;0.40;;
79487;SDS011;68949;53.176;18.088;2024-01-15T10:13:51;3.70;;;0.70;;
79487;SDS011;68949;53.176;18.088;2024-01-15T10:16:25;5.50;;;1.00;;
79487;SDS011;68949;53.176;18.088;2024-01-15T10:18:59;3.50;;;0.90;;
79487;SDS011;68949;53.176;18.088;2024-01-15T10:21:35;3.70;;;0.80;;
79487;SDS011;68949;53.176;18.088;2024-01-15T10:24:12;4.60;;;1.30;;
79487;SDS011;68949;53.176;18.088;2024-01-15T10:26:43;4.90;;;1.00;;
79487;SDS011;68949;53.176;18.088;2024-01-15T10:29:11;4.00;;;1.20;;
79487;SDS011;68949;53.176;18.088;2024-01-15T10:31:41;5.50;;;1.30;;
79487;SDS011;68949;53.176;18.088;2024-01-15T10:34:13;6.10;;;1.80;;
79487;SDS011;68949;53.176;18.088;2024-01-15T10:37:09;3.60;;;1.10;;
79487;SDS011;68949;53.176;18.088;2024-01-15T10:39:36;4.40;;;0.80;;
79487;SDS011;68949;53.176;18.088;2024-01-15T10:42:04;4.90;;;1.00;;
79487;SDS011;68949;53.176;18.088;2024-01-15T10:44:31;4.00;;;1.30;;
79487;SDS011;68949;53.176;18.088;2024-01-15T10:46:58;4.20;;;0.90;;
79487;SDS011;68949;53.176;18.088;2024-01-15T10:49:25;5.50;;;0.90;;
79487;SDS011;68949;53.176;18.088;2024-01-15T10:51:56;3.00;;;0.60;;
79487;SDS011;68949;53.176;18.088;2024-01-15T10:54:23;4.30;;;0.80;;
79487;SDS011;68949;53.176;18.088;2024-01-15T10:56:53;7.20;;;1.40;;
79487;SDS011;68949;53.176;18.088;2024-01-15T10:59:22;3.10;;;0.80;;
79487;SDS011;68949;53.176;18.088;2024-01-15T11:01:51;5.40;;;1.40;;
79487;SDS011;68949;53.176;18.088;2024-01-15T11:04:21;4.30;;;1.10;;
79487;SDS011;68949;53.176;18.088;2024-01-15T11:06:51;3.80;;;0.80;;
79487;SDS011;68949;53.176;18.088;2024-01-15T11:09:20;4.60;;;0.70;;
79487;SDS011;68949;53.176;18.088;2024-01-15T11:11:47;4.00;;;0.70;;
79487;SDS011;68949;53.176;18.088;2024-01-15T11:14:40;4.10;;;0.80;;
79487;SDS011;68949;53.176;18.088;2024-01-15T11:17:11;2.60;;;0.40;;
79487;SDS011;68949;53.176;18.088;2024-01-15T11:19:44;9.70;;;1.00;;
79487;SDS011;68949;53.176;18.088;2024-01-15T11:25:13;2.20;;;0.30;;
79487;SDS011;68949;53.176;18.088;2024-01-15T11:27:51;4.40;;;0.60;;
79487;SDS011;68949;53.176;18.088;2024-01-15T11:30:19;2.90;;;0.30;;
79487;SDS011;68949;53.176;18.088;2024-01-15T11:32:46;4.80;;;0.40;;
79487;SDS011;68949;53.176;18.088;2024-01-15T11:35:14;3.70;;;0.60;;
79487;SDS011;68949;53.176;18.088;2024-01-15T11:40:20;3.40;;;0.60;;
79487;SDS011;68949;53.176;18.088;2024-01-15T11:42:48;3.80;;;0.80;;
79487;SDS011;68949;53.176;18.088;2024-01-15T11:45:19;2.90;;;0.70;;
79487;SDS011;68949;53.176;18.088;2024-01-15T11:50:45;3.60;;;0.90;;
79487;SDS011;68949;53.176;18.088;2024-01-15T11:53:36;3.10;;;0.50;;
79487;SDS011;68949;53.176;18.088;2024-01-15T11:56:38;3.20;;;0.50;;
79487;SDS011;68949;53.176;18.088;2024-01-15T11:59:10;4.00;;;0.60;;
79487;SDS011;68949;53.176;18.088;2024-01-15T12:01:41;4.20;;;0.80;;
79487;SDS011;68949;53.176;18.088;2024-01-15T12:04:11;4.90;;;0.80;;
79487;SDS011;68949;53.176;18.088;2024-01-15T12:06:49;3.90;;;0.50;;
79487;SDS011;68949;53.176;18.088;2024-01-15T12:09:24;4.70;;;0.90;;
79487;SDS011;68949;53.176;18.088;2024-01-15T12:12:06;4.40;;;0.70;;
79487;SDS011;68949;53.176;18.088;2024-01-15T12:15:04;3.10;;;0.60;;
79487;SDS011;68949;53.176;18.088;2024-01-15T12:17:31;4.10;;;0.70;;
79487;SDS011;68949;53.176;18.088;2024-01-15T12:19:59;2.90;;;0.30;;
79487;SDS011;68949;53.176;18.088;2024-01-15T12:22:26;6.50;;;1.00;;
79487;SDS011;68949;53.176;18.088;2024-01-15T12:24:55;2.40;;;0.30;;
79487;SDS011;68949;53.176;18.088;2024-01-15T12:27:24;3.10;;;0.40;;
79487;SDS011;68949;53.176;18.088;2024-01-15T12:29:55;2.50;;;0.20;;
79487;SDS011;68949;53.176;18.088;2024-01-15T12:32:29;3.10;;;0.80;;
79487;SDS011;68949;53.176;18.088;2024-01-15T12:35:00;0.70;;;0.20;;
79487;SDS011;68949;53.176;18.088;2024-01-15T12:37:30;1.10;;;0.10;;
79487;SDS011;68949;53.176;18.088;2024-01-15T12:40:03;2.20;;;0.20;;
79487;SDS011;68949;53.176;18.088;2024-01-15T12:42:48;2.00;;;0.20;;
79487;SDS011;68949;53.176;18.088;2024-01-15T12:45:16;1.20;;;0.10;;
79487;SDS011;68949;53.176;18.088;2024-01-15T12:47:46;1.70;;;0.30;;
79487;SDS011;68949;53.176;18.088;2024-01-15T12:50:24;3.00;;;0.20;;
79487;SDS011;68949;53.176;18.088;2024-01-15T12:53:02;2.50;;;0.40;;
79487;SDS011;68949;53.176;18.088;2024-01-15T12:55:30;3.90;;;0.70;;
79487;SDS011;68949;53.176;18.088;2024-01-15T12:57:58;1.90;;;0.20;;
79487;SDS011;68949;53.176;18.088;2024-01-15T13:00:25;3.00;;;0.30;;
79487;SDS011;68949;53.176;18.088;2024-01-15T13:02:52;3.70;;;0.40;;
79487;SDS011;68949;53.176;18.088;2024-01-15T13:05:22;3.00;;;0.50;;
79487;SDS011;68949;53.176;18.088;2024-01-15T13:07:50;3.20;;;0.50;;
79487;SDS011;68949;53.176;18.088;2024-01-15T13:10:20;2.40;;;0.10;;
79487;SDS011;68949;53.176;18.088;2024-01-15T13:12:47;2.70;;;0.40;;
79487;SDS011;68949;53.176;18.088;2024-01-15T13:15:14;2.50;;;0.40;;
79487;SDS011;68949;53.176;18.088;2024-01-15T13:17:42;2.10;;;0.40;;
79487;SDS011;68949;53.176;18.088;2024-01-15T13:20:15;3.00;;;0.40;;
79487;SDS011;68949;53.176;18.088;2024-01-15T13:22:42;2.10;;;0.60;;
79487;SDS011;68949;53.176;18.088;2024-01-15T13:25:16;2.50;;;0.10;;
79487;SDS011;68949;53.176;18.088;2024-01-15T13:27:45;4.10;;;0.20;;
79487;SDS011;68949;53.176;18.088;2024-01-15T13:30:12;2.80;;;0.50;;
79487;SDS011;68949;53.176;18.088;2024-01-15T13:32:42;2.00;;;0.30;;
79487;SDS011;68949;53.176;18.088;2024-01-15T13:35:09;2.20;;;0.30;;
79487;SDS011;68949;53.176;18.088;2024-01-15T13:37:39;2.00;;;0.10;;
79487;SDS011;68949;53.176;18.088;2024-01-15T13:40:10;1.80;;;0.10;;
79487;SDS011;68949;53.176;18.088;2024-01-15T13:42:44;2.60;;;0.30;;
79487;SDS011;68949;53.176;18.088;2024-01-15T13:45:12;3.10;;;0.40;;
79487;SDS011;68949;53.176;18.088;2024-01-15T13:47:42;1.80;;;0.30;;
79487;SDS011;68949;53.176;18.088;2024-01-15T13:50:10;2.80;;;0.30;;
79487;SDS011;68949;53.176;18.088;2024-01-15T13:52:38;6.90;;;0.50;;
79487;SDS011;68949;53.176;18.088;2024-01-15T13:55:08;1.20;;;0.20;;
79487;SDS011;68949;53.176;18.088;2024-01-15T13:57:39;3.70;;;0.10;;
79487;SDS011;68949;53.176;18.088;2024-01-15T14:00:06;2.70;;;0.40;;
79487;SDS011;68949;53.176;18.088;2024-01-15T14:02:46;3.90;;;0.40;;
79487;SDS011;68949;53.176;18.088;2024-01-15T14:05:15;3.40;;;0.60;;
79487;SDS011;68949;53.176;18.088;2024-01-15T14:07:46;2.70;;;0.20;;
79487;SDS011;68949;53.176;18.088;2024-01-15T14:10:22;2.40;;;0.50;;
79487;SDS011;68949;53.176;18.088;2024-01-15T14:12:50;1.70;;;0.30;;
79487;SDS011;68949;53.176;18.088;2024-01-15T14:15:21;2.90;;;0.20;;
79487;SDS011;68949;53.176;18.088;2024-01-15T14:17:48;2.10;;;0.20;;
79487;SDS011;68949;53.176;18.088;2024-01-15T14:20:15;1.50;;;0.20;;
79487;SDS011;68949;53.176;18.088;2024-01-15T14:22:44;3.10;;;0.40;;
79487;SDS011;68949;53.176;18.088;2024-01-15T14:25:11;3.00;;;0.30;;
79487;SDS011;68949;53.176;18.088;2024-01-15T14:27:38;2.60;;;0.40;;
79487;SDS011;68949;53.176;18.088;2024-01-15T14:30:05;1.10;;;0.20;;
79487;SDS011;68949;53.176;18.088;2024-01-15T14:32:37;2.10;;;0.40;;
79487;SDS011;68949;53.176;18.088;2024-01-15T14:35:07;4.80;;;0.60;;
79487;SDS011;68949;53.176;18.088;2024-01-15T14:37:37;8.20;;;1.70;;
79487;SDS011;68949;53.176;18.088;2024-01-15T14:40:07;3.20;;;0.30;;
79487;SDS011;68949;53.176;18.088;2024-01-15T14:42:34;2.50;;;0.50;;
79487;SDS011;68949;53.176;18.088;2024-01-15T14:45:01;2.50;;;0.50;;
79487;SDS011;68949;53.176;18.088;2024-01-15T14:47:32;1.20;;;0.10;;
79487;SDS011;68949;53.176;18.088;2024-01-15T14:50:02;1.80;;;0.30;;
79487;SDS011;68949;53.176;18.088;2024-01-15T14:52:30;1.70;;;0.20;;